createdAt,value
2019-04-21T00:00:44.614Z,971.95
2019-04-21T00:01:46.594Z,971.94
2019-04-21T00:02:44.472Z,971.94
2019-04-21T00:03:48.292Z,971.89
2019-04-21T00:05:24.349Z,971.86
2019-04-21T00:07:50.183Z,971.84
2019-04-21T00:10:26.762Z,971.81
2019-04-21T00:12:40.091Z,971.78
2019-04-21T00:14:17.769Z,971.75
2019-04-21T00:15:32.751Z,971.74
2019-04-21T00:16:34.521Z,971.77
2019-04-21T00:17:26.930Z,971.77
2019-04-21T00:18:25.421Z,971.76
2019-04-21T00:19:28.746Z,971.78
2019-04-21T00:20:33.013Z,971.84
2019-04-21T00:21:36.317Z,971.77
2019-04-21T00:22:53.088Z,971.79
2019-04-21T00:24:44.208Z,971.78
2019-04-21T00:26:27.716Z,971.84
2019-04-21T00:28:06.425Z,971.8
2019-04-21T00:30:50.326Z,971.83
2019-04-21T00:32:35.084Z,971.77
2019-04-21T00:33:35.547Z,971.77
2019-04-21T00:34:32.355Z,971.77
2019-04-21T00:35:40.231Z,971.75
2019-04-21T00:36:53.308Z,971.73
2019-04-21T00:38:58.608Z,971.72
2019-04-21T00:43:32.755Z,971.68
2019-04-21T00:45:07.781Z,971.73
2019-04-21T00:46:47.049Z,971.67
2019-04-21T00:49:01.182Z,971.62
2019-04-21T00:51:38.271Z,971.61
2019-04-21T00:54:47.973Z,971.63
2019-04-21T00:57:38.601Z,971.56
2019-04-21T01:00:17.608Z,971.53
2019-04-21T01:02:38.034Z,971.49
2019-04-21T01:05:16.322Z,971.49
2019-04-21T01:07:57.602Z,971.49
2019-04-21T01:10:05.083Z,971.46
2019-04-21T01:12:01.033Z,971.45
2019-04-21T01:14:55.105Z,971.48
2019-04-21T01:17:21.539Z,971.42
2019-04-21T01:19:36.911Z,971.38
2019-04-21T01:20:21.909Z,971.39
2019-04-21T01:21:21.905Z,971.37
2019-04-21T01:22:21.898Z,971.3
2019-04-21T01:23:23.311Z,971.31
2019-04-21T01:24:29.352Z,971.33
2019-04-21T01:25:32.013Z,971.33
2019-04-21T01:27:04.092Z,971.28
2019-04-21T01:28:55.545Z,971.26
2019-04-21T01:31:08.581Z,971.27
2019-04-21T01:33:32.214Z,971.24
2019-04-21T01:35:47.777Z,971.27
2019-04-21T01:38:01.688Z,971.26
2019-04-21T01:40:52.545Z,971.25
2019-04-21T01:43:13.234Z,971.22
2019-04-21T01:45:26.147Z,971.24
2019-04-21T01:47:24.126Z,971.2
2019-04-21T01:49:07.635Z,971.24
2019-04-21T01:50:40.769Z,971.16
2019-04-21T01:53:10.723Z,971.09
2019-04-21T01:55:35.423Z,971.15
2019-04-21T01:59:01.240Z,971.13
2019-04-21T02:00:48.123Z,971.14
2019-04-21T02:03:20.854Z,971.09
2019-04-21T02:06:10.710Z,971.03
2019-04-21T02:08:14.628Z,971.02
2019-04-21T02:10:39.403Z,971.03
2019-04-21T02:13:08.168Z,970.96
2019-04-21T02:15:48.603Z,970.9
2019-04-21T02:17:58.843Z,970.89
2019-04-21T02:20:02.401Z,970.89
2019-04-21T02:21:33.886Z,970.84
2019-04-21T02:24:03.567Z,970.79
2019-04-21T02:26:33.352Z,970.74
2019-04-21T02:29:06.689Z,970.64
2019-04-21T02:33:25.557Z,970.7
2019-04-21T02:38:07.531Z,970.73
2019-04-21T02:44:42.648Z,970.64
2019-04-21T02:48:16.879Z,970.64
2019-04-21T02:51:41.775Z,970.61
2019-04-21T02:55:28.261Z,970.55
2019-04-21T02:59:14.654Z,970.54
2019-04-21T03:03:12.804Z,970.49
2019-04-21T03:06:15.137Z,970.42
2019-04-21T03:09:49.234Z,970.4
2019-04-21T03:13:13.596Z,970.37
2019-04-21T03:16:54.987Z,970.32
2019-04-21T03:20:16.834Z,970.32
2019-04-21T03:23:35.996Z,970.32
2019-04-21T03:27:16.928Z,970.31
2019-04-21T03:31:05.511Z,970.27
2019-04-21T03:38:45.009Z,970.34
2019-04-21T03:42:06.847Z,970.33
2019-04-21T03:45:23.119Z,970.25
2019-04-21T03:49:27.133Z,970.21
2019-04-21T03:53:31.206Z,970.27
2019-04-21T03:56:58.658Z,970.17
2019-04-21T04:01:03.797Z,970.21
2019-04-21T04:04:52.439Z,970.19
2019-04-21T04:11:43.089Z,970.16
2019-04-21T04:18:27.715Z,970.15
2019-04-21T04:25:33.250Z,970.13
2019-04-21T04:29:23.850Z,970.13
2019-04-21T04:32:46.089Z,970.11
2019-04-21T04:39:59.286Z,970.03
2019-04-21T04:47:22.554Z,970.03
2019-04-21T04:50:49.133Z,970.01
2019-04-21T04:53:50.474Z,970.02
2019-04-21T04:58:17.741Z,969.96
2019-04-21T05:01:21.152Z,969.96
2019-04-21T05:05:18.845Z,969.91
2019-04-21T05:11:55.202Z,969.89
2019-04-21T05:14:51.268Z,969.9
2019-04-21T05:18:52.334Z,969.95
2019-04-21T05:24:49.124Z,969.97
2019-04-21T05:26:43.105Z,969.95
2019-04-21T05:28:28.369Z,969.99
2019-04-21T05:30:33.675Z,969.94
2019-04-21T05:33:03.482Z,969.94
2019-04-21T05:35:39.017Z,969.95
2019-04-21T05:37:59.731Z,969.93
2019-04-21T05:39:55.698Z,969.96
2019-04-21T05:41:25.381Z,969.93
2019-04-21T05:42:49.422Z,969.98
2019-04-21T05:45:40.396Z,969.98
2019-04-21T05:48:34.902Z,969.9
2019-04-21T05:50:48.963Z,969.91
2019-04-21T05:52:49.639Z,969.91
2019-04-21T05:55:35.661Z,969.89
2019-04-21T05:58:02.379Z,969.86
2019-04-21T06:00:22.815Z,969.89
2019-04-21T06:03:56.861Z,969.91
2019-04-21T06:07:22.731Z,969.92
2019-04-21T06:09:59.345Z,969.85
2019-04-21T06:12:39.987Z,969.84
2019-04-21T06:15:13.395Z,969.88
2019-04-21T06:17:56.171Z,969.85
2019-04-21T06:20:46.217Z,969.85
2019-04-21T06:23:17.735Z,969.87
2019-04-21T06:26:53.529Z,969.81
2019-04-21T06:29:28.378Z,969.74
2019-04-21T06:32:48.934Z,969.74
2019-04-21T06:35:27.911Z,969.74
2019-04-21T06:38:42.967Z,969.73
2019-04-21T06:41:37.767Z,969.75
2019-04-21T06:44:20.067Z,969.76
2019-04-21T06:47:34.909Z,969.77
2019-04-21T06:50:07.353Z,969.72
2019-04-21T06:53:10.538Z,969.77
2019-04-21T06:56:11.915Z,969.74
2019-04-21T06:58:42.600Z,969.72
2019-04-21T07:01:00.369Z,969.7
2019-04-21T07:04:17.183Z,969.66
2019-04-21T07:06:53.533Z,969.68
2019-04-21T07:09:30.964Z,969.68
2019-04-21T07:12:11.557Z,969.64
2019-04-21T07:14:31.751Z,969.66
2019-04-21T07:17:17.679Z,969.67
2019-04-21T07:22:17.438Z,969.61
2019-04-21T07:25:08.525Z,969.61
2019-04-21T07:27:46.463Z,969.54
2019-04-21T07:30:43.437Z,969.5
2019-04-21T07:33:25.630Z,969.54
2019-04-21T07:36:30.300Z,969.48
2019-04-21T07:38:45.131Z,969.49
2019-04-21T07:40:45.345Z,969.46
2019-04-21T07:42:32.351Z,969.47
2019-04-21T07:44:22.682Z,969.47
2019-04-21T07:46:06.289Z,969.5
2019-04-21T07:48:00.643Z,969.53
2019-04-21T07:50:31.349Z,969.57
2019-04-21T07:53:13.992Z,969.57
2019-04-21T07:56:32.903Z,969.5
2019-04-21T07:58:20.775Z,969.54
2019-04-21T08:01:17.791Z,969.55
2019-04-21T08:03:59.081Z,969.51
2019-04-21T08:08:59.043Z,969.5
2019-04-21T08:10:56.573Z,969.56
2019-04-21T08:12:35.786Z,969.53
2019-04-21T08:15:07.553Z,969.51
2019-04-21T08:17:23.244Z,969.46
2019-04-21T08:19:35.034Z,969.45
2019-04-21T08:21:40.324Z,969.45
2019-04-21T08:24:06.013Z,969.46
2019-04-21T08:26:41.279Z,969.41
2019-04-21T08:29:39.055Z,969.41
2019-04-21T08:32:14.070Z,969.36
2019-04-21T08:37:42.815Z,969.39
2019-04-21T08:40:01.865Z,969.41
2019-04-21T08:42:25.182Z,969.37
2019-04-21T08:45:07.174Z,969.33
2019-04-21T08:47:32.921Z,969.26
2019-04-21T08:49:53.444Z,969.23
2019-04-21T08:55:10.718Z,969.26
2019-04-21T08:57:41.189Z,969.24
2019-04-21T09:00:38.272Z,969.21
2019-04-21T09:03:01.595Z,969.3
2019-04-21T09:05:10.918Z,969.24
2019-04-21T09:07:50.723Z,969.25
2019-04-21T09:10:08.883Z,969.2
2019-04-21T09:12:03.891Z,969.18
2019-04-21T09:14:06.902Z,969.19
2019-04-21T09:16:13.573Z,969.15
2019-04-21T09:17:52.609Z,969.14
2019-04-21T09:22:16.436Z,969.12
2019-04-21T09:24:32.807Z,969.12
2019-04-21T09:26:57.085Z,969.06
2019-04-21T09:28:51.615Z,969.03
2019-04-21T09:30:00.973Z,969.03
2019-04-21T09:30:58.349Z,969
2019-04-21T09:31:57.985Z,968.98
2019-04-21T09:32:57.938Z,968.98
2019-04-21T09:33:59.097Z,968.98
2019-04-21T09:34:55.794Z,968.99
2019-04-21T09:36:00.886Z,968.97
2019-04-21T09:37:12.361Z,969
2019-04-21T09:38:29.692Z,969
2019-04-21T09:39:22.535Z,969.01
2019-04-21T09:40:26.020Z,968.94
2019-04-21T09:41:22.728Z,968.96
2019-04-21T09:42:21.516Z,968.97
2019-04-21T09:43:30.512Z,968.93
2019-04-21T09:44:25.343Z,968.91
2019-04-21T09:45:22.521Z,968.9
2019-04-21T09:46:20.850Z,968.89
2019-04-21T09:47:23.372Z,968.91
2019-04-21T09:48:22.406Z,968.83
2019-04-21T09:49:23.803Z,968.82
2019-04-21T09:50:19.933Z,968.81
2019-04-21T09:51:20.175Z,968.83
2019-04-21T09:52:25.147Z,968.77
2019-04-21T09:53:29.141Z,968.81
2019-04-21T09:54:27.720Z,968.8
2019-04-21T09:55:24.263Z,968.76
2019-04-21T09:56:31.056Z,968.77
2019-04-21T09:57:36.831Z,968.75
2019-04-21T09:58:38.372Z,968.77
2019-04-21T09:59:36.967Z,968.71
2019-04-21T10:00:43.287Z,968.73
2019-04-21T10:01:58.553Z,968.74
2019-04-21T10:03:08.086Z,968.78
2019-04-21T10:04:05.216Z,968.73
2019-04-21T10:05:03.030Z,968.7
2019-04-21T10:06:04.305Z,968.73
2019-04-21T10:07:03.075Z,968.68
2019-04-21T10:08:03.606Z,968.72
2019-04-21T10:09:05.882Z,968.72
2019-04-21T10:10:03.762Z,968.75
2019-04-21T10:11:03.332Z,968.71
2019-04-21T10:12:03.150Z,968.68
2019-04-21T10:13:03.012Z,968.64
2019-04-21T10:14:03.319Z,968.64
2019-04-21T10:15:04.173Z,968.6
2019-04-21T10:16:03.100Z,968.61
2019-04-21T10:17:03.099Z,968.63
2019-04-21T10:18:02.964Z,968.59
2019-04-21T10:19:02.991Z,968.61
2019-04-21T10:20:03.226Z,968.58
2019-04-21T10:21:03.192Z,968.51
2019-04-21T10:22:04.373Z,968.5
2019-04-21T10:23:03.019Z,968.53
2019-04-21T10:24:04.089Z,968.45
2019-04-21T10:25:03.049Z,968.42
2019-04-21T10:26:04.166Z,968.5
2019-04-21T10:27:05.037Z,968.5
2019-04-21T10:28:03.222Z,968.48
2019-04-21T10:29:07.198Z,968.45
2019-04-21T10:30:03.675Z,968.44
2019-04-21T10:31:02.890Z,968.37
2019-04-21T10:32:03.553Z,968.39
2019-04-21T10:33:03.957Z,968.37
2019-04-21T10:34:03.162Z,968.36
2019-04-21T10:35:03.246Z,968.34
2019-04-21T10:36:02.865Z,968.34
2019-04-21T10:37:02.917Z,968.27
2019-04-21T10:38:14.540Z,968.22
2019-04-21T10:39:04.176Z,968.29
2019-04-21T10:40:03.524Z,968.23
2019-04-21T10:41:03.465Z,968.23
2019-04-21T10:42:03.505Z,968.24
2019-04-21T10:43:03.888Z,968.29
2019-04-21T10:44:03.105Z,968.24
2019-04-21T10:45:03.310Z,968.23
2019-04-21T10:46:02.814Z,968.23
2019-04-21T10:47:02.811Z,968.17
2019-04-21T10:48:03.088Z,968.19
2019-04-21T10:49:02.799Z,968.15
2019-04-21T10:50:02.898Z,968.17
2019-04-21T10:51:03.210Z,968.13
2019-04-21T10:52:02.781Z,968.07
2019-04-21T10:53:02.958Z,968.08
2019-04-21T10:54:04.047Z,968.07
2019-04-21T10:55:16.415Z,968.11
2019-04-21T10:56:34.817Z,968.1
2019-04-21T10:57:30.505Z,968.1
2019-04-21T10:58:29.525Z,968.1
2019-04-21T10:59:29.569Z,968.02
2019-04-21T11:00:30.100Z,968.03
2019-04-21T11:01:29.584Z,968.05
2019-04-21T11:02:30.612Z,968.07
2019-04-21T11:03:30.901Z,968
2019-04-21T11:04:33.450Z,967.94
2019-04-21T11:05:30.500Z,967.96
2019-04-21T11:06:30.774Z,967.94
2019-04-21T11:07:33.198Z,967.93
2019-04-21T11:08:38.417Z,967.88
2019-04-21T11:09:35.988Z,967.9
2019-04-21T11:10:34.519Z,967.97
2019-04-21T11:11:34.518Z,967.92
2019-04-21T11:12:36.556Z,967.95
2019-04-21T11:13:34.801Z,967.93
2019-04-21T11:14:35.573Z,967.9
2019-04-21T11:15:34.985Z,967.9
2019-04-21T11:16:35.130Z,967.87
2019-04-21T11:17:34.486Z,967.85
2019-04-21T11:18:35.719Z,967.9
2019-04-21T11:19:34.852Z,967.89
2019-04-21T11:20:35.132Z,967.84
2019-04-21T11:21:34.680Z,967.8
2019-04-21T11:22:35.548Z,967.81
2019-04-21T11:23:35.322Z,967.83
2019-04-21T11:24:35.060Z,967.75
2019-04-21T11:25:35.831Z,967.79
2019-04-21T11:26:35.795Z,967.75
2019-04-21T11:27:35.089Z,967.79
2019-04-21T11:28:34.667Z,967.77
2019-04-21T11:29:35.048Z,967.77
2019-04-21T11:30:35.782Z,967.81
2019-04-21T11:31:34.417Z,967.77
2019-04-21T11:32:35.040Z,967.78
2019-04-21T11:33:35.558Z,967.77
2019-04-21T11:34:34.407Z,967.78
2019-04-21T11:35:35.210Z,967.75
2019-04-21T11:36:35.274Z,967.74
2019-04-21T11:37:34.714Z,967.78
2019-04-21T11:38:45.825Z,967.75
2019-04-21T11:39:59.877Z,967.72
2019-04-21T11:40:54.031Z,967.7
2019-04-21T11:41:54.123Z,967.66
2019-04-21T11:42:53.956Z,967.66
2019-04-21T11:43:54.985Z,967.64
2019-04-21T11:44:55.307Z,967.66
2019-04-21T11:45:54.747Z,967.66
2019-04-21T11:46:54.375Z,967.65
2019-04-21T11:47:54.460Z,967.7
2019-04-21T11:48:54.692Z,967.59
2019-04-21T11:49:54.923Z,967.64
2019-04-21T11:50:55.141Z,967.6
2019-04-21T11:51:55.073Z,967.59
2019-04-21T11:52:54.822Z,967.5
2019-04-21T11:53:54.969Z,967.53
2019-04-21T11:54:54.959Z,967.48
2019-04-21T11:55:55.075Z,967.52
2019-04-21T11:56:54.846Z,967.48
2019-04-21T11:57:55.143Z,967.45
2019-04-21T11:58:54.109Z,967.45
2019-04-21T11:59:53.872Z,967.46
2019-04-21T12:00:53.936Z,967.46
2019-04-21T12:01:54.061Z,967.49
2019-04-21T12:02:53.858Z,967.5
2019-04-21T12:03:53.892Z,967.42
2019-04-21T12:04:53.848Z,967.51
2019-04-21T12:05:55.212Z,967.46
2019-04-21T12:06:54.507Z,967.43
2019-04-21T12:07:53.834Z,967.47
2019-04-21T12:08:56.445Z,967.44
2019-04-21T12:09:53.841Z,967.45
2019-04-21T12:10:53.821Z,967.39
2019-04-21T12:11:53.815Z,967.4
2019-04-21T12:12:55.078Z,967.46
2019-04-21T12:13:54.187Z,967.32
2019-04-21T12:14:54.205Z,967.35
2019-04-21T12:15:54.792Z,967.34
2019-04-21T12:16:55.082Z,967.29
2019-04-21T12:17:54.288Z,967.38
2019-04-21T12:18:54.626Z,967.38
2019-04-21T12:19:54.732Z,967.32
2019-04-21T12:20:53.827Z,967.34
2019-04-21T12:22:04.699Z,967.31
2019-04-21T12:22:54.818Z,967.3
2019-04-21T12:23:54.370Z,967.28
2019-04-21T12:24:53.754Z,967.33
2019-04-21T12:25:54.778Z,967.3
2019-04-21T12:26:53.921Z,967.31
2019-04-21T12:27:54.113Z,967.27
2019-04-21T12:28:53.736Z,967.21
2019-04-21T12:29:53.732Z,967.23
2019-04-21T12:30:53.881Z,967.25
2019-04-21T12:31:53.929Z,967.29
2019-04-21T12:32:53.933Z,967.22
2019-04-21T12:33:54.011Z,967.2
2019-04-21T12:34:55.222Z,967.25
2019-04-21T12:35:53.791Z,967.28
2019-04-21T12:36:54.950Z,967.25
2019-04-21T12:37:54.987Z,967.2
2019-04-21T12:38:56.180Z,967.22
2019-04-21T12:39:54.729Z,967.19
2019-04-21T12:40:54.837Z,967.15
2019-04-21T12:41:54.282Z,967.14
2019-04-21T12:42:54.857Z,967.17
2019-04-21T12:43:54.851Z,967.09
2019-04-21T12:44:55.021Z,967.09
2019-04-21T12:45:53.867Z,967.09
2019-04-21T12:46:54.008Z,967.08
2019-04-21T12:47:53.939Z,967.09
2019-04-21T12:48:53.845Z,967.08
2019-04-21T12:49:54.034Z,967.07
2019-04-21T12:50:54.196Z,967.06
2019-04-21T12:51:53.659Z,967.01
2019-04-21T12:52:53.715Z,966.98
2019-04-21T12:53:53.994Z,967
2019-04-21T12:54:53.615Z,967.04
2019-04-21T12:55:53.824Z,967.02
2019-04-21T12:56:53.806Z,966.98
2019-04-21T12:57:53.601Z,966.97
2019-04-21T12:58:53.596Z,966.96
2019-04-21T12:59:54.910Z,966.94
2019-04-21T13:00:54.706Z,966.98
2019-04-21T13:01:54.811Z,966.95
2019-04-21T13:02:53.969Z,966.93
2019-04-21T13:03:53.573Z,966.96
2019-04-21T13:04:54.548Z,966.9
2019-04-21T13:05:53.790Z,966.91
2019-04-21T13:06:53.561Z,966.88
2019-04-21T13:07:53.554Z,966.84
2019-04-21T13:09:01.272Z,966.85
2019-04-21T13:09:54.573Z,966.86
2019-04-21T13:10:53.937Z,966.88
2019-04-21T13:11:53.534Z,966.84
2019-04-21T13:12:54.230Z,966.87
2019-04-21T13:13:53.688Z,966.87
2019-04-21T13:14:55.709Z,966.8
2019-04-21T13:15:53.551Z,966.8
2019-04-21T13:16:53.514Z,966.83
2019-04-21T13:17:54.203Z,966.78
2019-04-21T13:18:53.570Z,966.78
2019-04-21T13:19:53.635Z,966.78
2019-04-21T13:20:54.002Z,966.78
2019-04-21T13:21:53.991Z,966.81
2019-04-21T13:22:54.305Z,966.78
2019-04-21T13:23:54.687Z,966.78
2019-04-21T13:24:53.846Z,966.76
2019-04-21T13:25:54.112Z,966.79
2019-04-21T13:26:57.841Z,966.74
2019-04-21T13:27:54.453Z,966.77
2019-04-21T13:28:54.210Z,966.72
2019-04-21T13:29:54.521Z,966.7
2019-04-21T13:30:54.007Z,966.62
2019-04-21T13:31:54.252Z,966.64
2019-04-21T13:32:53.572Z,966.61
2019-04-21T13:33:53.434Z,966.62
2019-04-21T13:34:54.873Z,966.59
2019-04-21T13:35:55.012Z,966.58
2019-04-21T13:36:53.900Z,966.58
2019-04-21T13:37:54.381Z,966.59
2019-04-21T13:39:24.697Z,966.55
2019-04-21T13:41:25.507Z,966.51
2019-04-21T13:42:34.087Z,966.53
2019-04-21T13:43:25.245Z,966.51
2019-04-21T13:44:24.993Z,966.5
2019-04-21T13:45:25.912Z,966.52
2019-04-21T13:46:25.035Z,966.5
2019-04-21T13:47:25.057Z,966.47
2019-04-21T13:48:26.364Z,966.44
2019-04-21T13:49:25.336Z,966.42
2019-04-21T13:50:25.573Z,966.43
2019-04-21T13:51:25.094Z,966.38
2019-04-21T13:52:24.931Z,966.39
2019-04-21T13:53:25.086Z,966.37
2019-04-21T13:54:25.391Z,966.38
2019-04-21T13:55:25.476Z,966.38
2019-04-21T13:56:24.913Z,966.37
2019-04-21T13:57:26.285Z,966.35
2019-04-21T13:58:26.206Z,966.35
2019-04-21T13:59:26.306Z,966.34
2019-04-21T14:00:24.896Z,966.3
2019-04-21T14:01:25.571Z,966.29
2019-04-21T14:02:24.886Z,966.31
2019-04-21T14:03:26.645Z,966.3
2019-04-21T14:04:25.265Z,966.25
2019-04-21T14:05:24.871Z,966.23
2019-04-21T14:06:24.868Z,966.22
2019-04-21T14:07:25.979Z,966.23
2019-04-21T14:08:25.311Z,966.24
2019-04-21T14:09:35.587Z,966.22
2019-04-21T14:10:25.845Z,966.24
2019-04-21T14:11:25.109Z,966.24
2019-04-21T14:12:25.365Z,966.2
2019-04-21T14:13:24.837Z,966.2
2019-04-21T14:14:26.058Z,966.21
2019-04-21T14:15:26.170Z,966.18
2019-04-21T14:16:24.822Z,966.22
2019-04-21T14:17:24.819Z,966.21
2019-04-21T14:18:24.814Z,966.18
2019-04-21T14:19:25.535Z,966.15
2019-04-21T14:20:24.929Z,966.18
2019-04-21T14:21:25.082Z,966.16
2019-04-21T14:22:25.111Z,966.16
2019-04-21T14:23:32.378Z,966.13
2019-04-21T14:24:24.786Z,966.14
2019-04-21T14:25:25.831Z,966.16
2019-04-21T14:26:24.778Z,966.16
2019-04-21T14:27:25.921Z,966.14
2019-04-21T14:28:25.838Z,966.14
2019-04-21T14:29:25.693Z,966.18
2019-04-21T14:30:26.172Z,966.18
2019-04-21T14:31:26.240Z,966.14
2019-04-21T14:32:24.749Z,966.12
2019-04-21T14:33:25.692Z,966.14
2019-04-21T14:34:25.875Z,966.09
2019-04-21T14:35:25.128Z,966.13
2019-04-21T14:36:24.733Z,966.08
2019-04-21T14:37:24.793Z,966.07
2019-04-21T14:38:24.948Z,966.05
2019-04-21T14:39:26.254Z,966.08
2019-04-21T14:40:27.707Z,966.05
2019-04-21T14:41:24.711Z,966.02
2019-04-21T14:42:24.707Z,966.02
2019-04-21T14:43:25.911Z,966
2019-04-21T14:44:24.927Z,965.98
2019-04-21T14:45:24.939Z,965.97
2019-04-21T14:46:24.942Z,965.95
2019-04-21T14:47:25.165Z,965.9
2019-04-21T14:48:25.272Z,965.88
2019-04-21T14:49:24.677Z,965.91
2019-04-21T14:50:26.025Z,965.91
2019-04-21T14:51:25.007Z,965.88
2019-04-21T14:52:25.261Z,965.91
2019-04-21T14:53:25.655Z,965.9
2019-04-21T14:54:24.831Z,965.86
2019-04-21T14:55:24.938Z,965.86
2019-04-21T14:56:25.027Z,965.85
2019-04-21T14:57:25.138Z,965.86
2019-04-21T14:58:25.424Z,965.85
2019-04-21T14:59:24.851Z,965.83
2019-04-21T15:00:24.968Z,965.86
2019-04-21T15:01:26.121Z,965.82
2019-04-21T15:02:25.526Z,965.86
2019-04-21T15:03:25.778Z,965.82
2019-04-21T15:04:25.743Z,965.78
2019-04-21T15:05:25.183Z,965.78
2019-04-21T15:06:25.424Z,965.77
2019-04-21T15:07:25.399Z,965.73
2019-04-21T15:08:24.993Z,965.75
2019-04-21T15:09:25.260Z,965.77
2019-04-21T15:10:27.692Z,965.74
2019-04-21T15:11:24.599Z,965.71
2019-04-21T15:12:25.763Z,965.72
2019-04-21T15:13:25.796Z,965.69
2019-04-21T15:14:24.590Z,965.68
2019-04-21T15:15:25.608Z,965.67
2019-04-21T15:16:24.899Z,965.71
2019-04-21T15:17:26.056Z,965.65
2019-04-21T15:18:24.577Z,965.67
2019-04-21T15:19:24.656Z,965.66
2019-04-21T15:20:25.237Z,965.67
2019-04-21T15:21:25.709Z,965.7
2019-04-21T15:22:24.563Z,965.67
2019-04-21T15:23:26.777Z,965.68
2019-04-21T15:24:24.558Z,965.64
2019-04-21T15:25:25.925Z,965.62
2019-04-21T15:26:24.552Z,965.62
2019-04-21T15:27:25.106Z,965.62
2019-04-21T15:28:25.476Z,965.62
2019-04-21T15:29:24.714Z,965.59
2019-04-21T15:30:24.798Z,965.59
2019-04-21T15:31:30.181Z,965.56
2019-04-21T15:32:24.534Z,965.54
2019-04-21T15:33:24.576Z,965.56
2019-04-21T15:34:25.949Z,965.56
2019-04-21T15:35:24.913Z,965.52
2019-04-21T15:36:25.017Z,965.52
2019-04-21T15:37:25.930Z,965.48
2019-04-21T15:38:25.493Z,965.54
2019-04-21T15:39:25.631Z,965.46
2019-04-21T15:40:35.127Z,965.46
2019-04-21T15:41:24.729Z,965.44
2019-04-21T15:42:24.502Z,965.47
2019-04-21T15:43:24.587Z,965.47
2019-04-21T15:44:24.806Z,965.45
2019-04-21T15:45:24.491Z,965.43
2019-04-21T15:46:24.841Z,965.44
2019-04-21T15:47:24.485Z,965.46
2019-04-21T15:48:24.483Z,965.39
2019-04-21T15:49:24.980Z,965.39
2019-04-21T15:50:25.085Z,965.37
2019-04-21T15:51:24.473Z,965.4
2019-04-21T15:52:25.448Z,965.36
2019-04-21T15:53:25.522Z,965.38
2019-04-21T15:54:24.742Z,965.37
2019-04-21T15:55:24.461Z,965.35
2019-04-21T15:56:24.614Z,965.34
2019-04-21T15:57:25.824Z,965.31
2019-04-21T15:58:24.752Z,965.33
2019-04-21T15:59:24.571Z,965.35
2019-04-21T16:00:24.682Z,965.31
2019-04-21T16:01:24.816Z,965.3
2019-04-21T16:02:24.627Z,965.27
2019-04-21T16:03:24.787Z,965.28
2019-04-21T16:04:25.084Z,965.28
2019-04-21T16:05:24.580Z,965.24
2019-04-21T16:06:25.635Z,965.24
2019-04-21T16:07:24.605Z,965.23
2019-04-21T16:08:24.905Z,965.19
2019-04-21T16:09:26.852Z,965.16
2019-04-21T16:10:34.194Z,965.16
2019-04-21T16:11:25.691Z,965.14
2019-04-21T16:12:25.644Z,965.16
2019-04-21T16:13:25.761Z,965.15
2019-04-21T16:14:24.792Z,965.09
2019-04-21T16:15:24.404Z,965.09
2019-04-21T16:16:26.723Z,965.14
2019-04-21T16:17:25.368Z,965.12
2019-04-21T16:18:24.557Z,965.04
2019-04-21T16:19:24.905Z,965.07
2019-04-21T16:20:25.781Z,965.1
2019-04-21T16:21:24.388Z,965.06
2019-04-21T16:22:24.567Z,965.04
2019-04-21T16:23:24.556Z,965.06
2019-04-21T16:24:25.287Z,965.04
2019-04-21T16:25:24.374Z,965.05
2019-04-21T16:26:24.640Z,965.04
2019-04-21T16:27:25.666Z,965.06
2019-04-21T16:28:24.365Z,965.03
2019-04-21T16:29:24.994Z,964.99
2019-04-21T16:30:25.772Z,965.02
2019-04-21T16:31:24.804Z,964.96
2019-04-21T16:32:24.352Z,964.99
2019-04-21T16:33:25.111Z,964.99
2019-04-21T16:34:35.911Z,964.93
2019-04-21T16:35:25.182Z,964.95
2019-04-21T16:36:25.451Z,964.98
2019-04-21T16:37:25.366Z,964.93
2019-04-21T16:38:25.730Z,964.91
2019-04-21T16:39:25.290Z,964.9
2019-04-21T16:40:25.436Z,964.92
2019-04-21T16:41:24.457Z,964.9
2019-04-21T16:42:24.516Z,964.87
2019-04-21T16:43:24.963Z,964.87
2019-04-21T16:44:25.271Z,964.87
2019-04-21T16:45:25.225Z,964.8
2019-04-21T16:46:25.306Z,964.82
2019-04-21T16:47:24.310Z,964.81
2019-04-21T16:48:25.357Z,964.78
2019-04-21T16:49:25.417Z,964.76
2019-04-21T16:50:25.406Z,964.77
2019-04-21T16:51:24.300Z,964.76
2019-04-21T16:52:24.298Z,964.75
2019-04-21T16:53:24.294Z,964.75
2019-04-21T16:54:24.291Z,964.69
2019-04-21T16:55:24.694Z,964.73
2019-04-21T16:56:24.782Z,964.69
2019-04-21T16:57:24.282Z,964.67
2019-04-21T16:58:27.257Z,964.69
2019-04-21T16:59:24.465Z,964.68
2019-04-21T17:00:31.044Z,964.68
2019-04-21T17:01:25.805Z,964.68
2019-04-21T17:02:24.805Z,964.65
2019-04-21T17:03:24.356Z,964.65
2019-04-21T17:04:24.498Z,964.65
2019-04-21T17:05:24.508Z,964.61
2019-04-21T17:06:24.937Z,964.63
2019-04-21T17:07:24.251Z,964.63
2019-04-21T17:08:24.249Z,964.63
2019-04-21T17:09:24.245Z,964.62
2019-04-21T17:10:24.606Z,964.61
2019-04-21T17:11:29.228Z,964.6
2019-04-21T17:12:26.300Z,964.6
2019-04-21T17:13:24.630Z,964.61
2019-04-21T17:14:35.333Z,964.58
2019-04-21T17:17:02.665Z,964.58
2019-04-21T17:18:47.382Z,964.54
2019-04-21T17:19:46.543Z,964.55
2019-04-21T17:20:52.216Z,964.55
2019-04-21T17:21:47.887Z,964.57
2019-04-21T17:22:47.127Z,964.56
2019-04-21T17:23:48.196Z,964.55
2019-04-21T17:24:48.409Z,964.54
2019-04-21T17:25:47.374Z,964.52
2019-04-21T17:26:48.139Z,964.54
2019-04-21T17:27:47.111Z,964.54
2019-04-21T17:28:47.110Z,964.52
2019-04-21T17:29:48.483Z,964.51
2019-04-21T17:30:48.422Z,964.5
2019-04-21T17:31:47.676Z,964.5
2019-04-21T17:32:49.424Z,964.54
2019-04-21T17:33:48.376Z,964.5
2019-04-21T17:34:47.926Z,964.53
2019-04-21T17:35:47.082Z,964.52
2019-04-21T17:36:48.702Z,964.54
2019-04-21T17:37:48.037Z,964.53
2019-04-21T17:38:48.132Z,964.56
2019-04-21T17:39:47.068Z,964.57
2019-04-21T17:40:47.534Z,964.53
2019-04-21T17:41:58.014Z,964.54
2019-04-21T17:43:07.503Z,964.57
2019-04-21T17:44:02.507Z,964.52
2019-04-21T17:45:03.504Z,964.57
2019-04-21T17:46:02.780Z,964.55
2019-04-21T17:47:05.626Z,964.52
2019-04-21T17:48:05.785Z,964.54
2019-04-21T17:49:03.131Z,964.5
2019-04-21T17:50:04.075Z,964.53
2019-04-21T17:51:03.309Z,964.53
2019-04-21T17:52:05.579Z,964.53
2019-04-21T17:53:07.092Z,964.51
2019-04-21T17:54:03.061Z,964.54
2019-04-21T17:55:10.194Z,964.55
2019-04-21T17:56:21.947Z,964.56
2019-04-21T17:58:49.206Z,964.57
2019-04-21T18:01:41.783Z,964.55
2019-04-21T18:04:17.952Z,964.6
2019-04-21T18:06:30.814Z,964.63
2019-04-21T18:08:22.748Z,964.59
2019-04-21T18:10:30.505Z,964.6
2019-04-21T18:12:24.854Z,964.62
2019-04-21T18:13:19.988Z,964.6
2019-04-21T18:14:18.914Z,964.62
2019-04-21T18:15:35.559Z,964.58
2019-04-21T18:16:44.547Z,964.59
2019-04-21T18:17:40.591Z,964.59
2019-04-21T18:18:41.124Z,964.56
2019-04-21T18:19:43.244Z,964.54
2019-04-21T18:20:41.785Z,964.53
2019-04-21T18:21:46.710Z,964.54
2019-04-21T18:22:44.098Z,964.55
2019-04-21T18:23:50.389Z,964.54
2019-04-21T18:24:48.744Z,964.54
2019-04-21T18:25:59.895Z,964.51
2019-04-21T18:26:58.735Z,964.56
2019-04-21T18:27:54.785Z,964.55
2019-04-21T18:28:56.908Z,964.54
2019-04-21T18:29:54.827Z,964.55
2019-04-21T18:30:56.269Z,964.51
2019-04-21T18:31:56.242Z,964.53
2019-04-21T18:32:56.855Z,964.55
2019-04-21T18:34:02.113Z,964.5
2019-04-21T18:35:00.334Z,964.57
2019-04-21T18:35:56.728Z,964.58
2019-04-21T18:36:57.176Z,964.58
2019-04-21T18:38:03.138Z,964.6
2019-04-21T18:39:43.184Z,964.6
2019-04-21T18:40:36.980Z,964.62
2019-04-21T18:41:34.418Z,964.64
2019-04-21T18:43:41.931Z,964.64
2019-04-21T18:46:25.661Z,964.65
2019-04-21T18:48:18.869Z,964.63
2019-04-21T18:49:11.187Z,964.64
2019-04-21T18:50:10.160Z,964.63
2019-04-21T18:51:13.813Z,964.69